createdAt,value
2022-09-03T00:00:52.621Z,1.33
2022-09-03T00:03:48.038Z,1.30
2022-09-03T00:06:54.371Z,1.10
2022-09-03T00:09:53.592Z,1.20
2022-09-03T00:12:46.529Z,1.30
2022-09-03T00:15:40.565Z,1.10
2022-09-03T00:21:45.943Z,1.10
2022-09-03T00:24:39.201Z,1.40
2022-09-03T00:27:34.123Z,1.30
2022-09-03T00:30:27.007Z,1.55
2022-09-03T00:33:31.133Z,1.35
2022-09-03T00:36:31.947Z,1.20
2022-09-03T00:39:24.953Z,1.20
2022-09-03T00:42:48.965Z,1.38
2022-09-03T00:46:09.455Z,1.52
2022-09-03T00:49:28.794Z,1.85
2022-09-03T00:52:56.664Z,1.70
2022-09-03T00:56:16.049Z,1.50
2022-09-03T00:59:31.976Z,1.40
2022-09-03T01:02:36.404Z,1.30
2022-09-03T01:05:39.024Z,1.15
2022-09-03T01:08:44.526Z,1.40
2022-09-03T01:11:59.695Z,1.40
2022-09-03T01:15:04.295Z,1.50
2022-09-03T01:18:06.650Z,1.23
2022-09-03T01:21:34.828Z,1.17
2022-09-03T01:24:59.156Z,1.30
2022-09-03T01:28:23.797Z,1.60
2022-09-03T01:31:26.961Z,1.20
2022-09-03T01:34:35.387Z,1.38
2022-09-03T01:37:58.046Z,1.25
2022-09-03T01:41:30.920Z,1.50
2022-09-03T01:44:53.831Z,1.40
2022-09-03T01:48:13.170Z,1.48
2022-09-03T01:51:21.052Z,1.52
2022-09-03T01:54:26.195Z,1.25
2022-09-03T01:57:45.876Z,1.83
2022-09-03T02:00:40.136Z,1.50
2022-09-03T02:03:40.915Z,1.42
2022-09-03T02:06:34.163Z,1.20
2022-09-03T02:09:24.562Z,1.20
2022-09-03T02:12:23.449Z,1.20
2022-09-03T02:15:18.186Z,1.67
2022-09-03T02:18:23.478Z,1.30
2022-09-03T02:21:20.473Z,1.60
2022-09-03T02:24:10.756Z,1.60
2022-09-03T02:27:01.040Z,1.40
2022-09-03T02:29:51.673Z,1.42
2022-09-03T02:32:41.856Z,1.58
2022-09-03T02:35:32.399Z,1.70
2022-09-03T02:38:28.420Z,1.65
2022-09-03T02:41:19.204Z,1.60
2022-09-03T02:44:14.747Z,1.27
2022-09-03T02:47:08.195Z,1.40
2022-09-03T02:49:58.560Z,1.30
2022-09-03T02:52:48.852Z,1.20
2022-09-03T02:55:39.079Z,1.20
2022-09-03T02:58:31.544Z,1.42
2022-09-03T03:01:23.883Z,1.30
2022-09-03T03:04:15.066Z,1.63
2022-09-03T03:07:06.836Z,1.52
2022-09-03T03:09:57.250Z,1.50
2022-09-03T03:12:47.455Z,1.50
2022-09-03T03:15:37.864Z,1.40
2022-09-03T03:18:28.445Z,1.50
2022-09-03T03:21:19.515Z,1.33
2022-09-03T03:24:10.523Z,1.42
2022-09-03T03:27:00.748Z,1.40
2022-09-03T03:29:50.771Z,1.20
2022-09-03T03:32:40.961Z,1.13
2022-09-03T03:35:31.157Z,1.17
2022-09-03T03:38:21.653Z,1.35
2022-09-03T03:41:15.795Z,1.45
2022-09-03T03:44:08.582Z,1.35
2022-09-03T03:46:58.751Z,1.38
2022-09-03T03:49:49.143Z,1.40
2022-09-03T03:52:39.222Z,1.48
2022-09-03T03:55:29.623Z,1.23
2022-09-03T03:58:25.780Z,1.45
2022-09-03T04:01:19.059Z,1.23
2022-09-03T04:04:09.220Z,1.50
2022-09-03T04:06:59.630Z,1.65
2022-09-03T04:09:50.149Z,1.33
2022-09-03T04:12:40.934Z,1.48
2022-09-03T04:15:31.189Z,1.38
2022-09-03T04:18:21.701Z,1.65
2022-09-03T04:21:15.088Z,1.40
2022-09-03T04:24:06.161Z,1.45
2022-09-03T04:26:57.153Z,1.35
2022-09-03T04:29:47.628Z,1.50
2022-09-03T04:32:53.505Z,1.73
2022-09-03T04:35:43.962Z,2.13
2022-09-03T04:38:36.013Z,1.88
2022-09-03T04:41:31.148Z,1.33
2022-09-03T04:44:21.523Z,1.60
2022-09-03T04:47:11.662Z,1.63
2022-09-03T04:50:02.067Z,1.50
2022-09-03T04:52:52.508Z,1.60
2022-09-03T04:55:42.838Z,1.60
2022-09-03T04:58:32.879Z,1.60
2022-09-03T05:01:26.228Z,1.50
2022-09-03T05:04:17.196Z,1.45
2022-09-03T05:07:07.667Z,1.50
2022-09-03T05:09:58.612Z,1.70
2022-09-03T05:12:58.407Z,1.85
2022-09-03T05:15:48.510Z,1.60
2022-09-03T05:18:38.688Z,1.70
2022-09-03T05:21:29.900Z,1.42
2022-09-03T05:24:20.587Z,1.60
2022-09-03T05:27:10.686Z,1.52
2022-09-03T05:30:01.425Z,1.83
2022-09-03T05:32:52.514Z,1.55
2022-09-03T05:35:42.650Z,1.70
2022-09-03T05:38:33.725Z,1.63
2022-09-03T05:41:23.815Z,1.85
2022-09-03T05:44:14.590Z,1.88
2022-09-03T05:47:04.735Z,1.27
2022-09-03T05:49:54.992Z,1.30
2022-09-03T05:52:44.895Z,1.63
2022-09-03T05:55:35.052Z,1.67
2022-09-03T05:58:30.185Z,1.65
2022-09-03T06:01:23.203Z,1.80
2022-09-03T06:04:15.167Z,1.77
2022-09-03T06:07:05.263Z,1.80
2022-09-03T06:09:55.407Z,1.58
2022-09-03T06:12:49.638Z,1.70
2022-09-03T06:18:31.465Z,1.92
2022-09-03T06:21:22.199Z,1.40
2022-09-03T06:24:26.526Z,1.60
2022-09-03T06:27:21.247Z,1.40
2022-09-03T06:30:12.354Z,1.70
2022-09-03T06:33:02.869Z,1.67
2022-09-03T06:35:58.726Z,1.60
2022-09-03T06:38:52.611Z,1.70
2022-09-03T06:41:42.775Z,1.43
2022-09-03T06:44:33.090Z,1.60
2022-09-03T06:47:23.614Z,1.73
2022-09-03T06:50:14.300Z,1.50
2022-09-03T06:53:05.032Z,1.73
2022-09-03T06:55:57.034Z,1.52
2022-09-03T06:58:48.671Z,1.67
2022-09-03T07:01:43.661Z,2.17
2022-09-03T07:04:35.202Z,2.20
2022-09-03T07:07:26.046Z,1.65
2022-09-03T07:10:20.841Z,1.67
2022-09-03T07:13:11.311Z,1.90
2022-09-03T07:16:11.349Z,2.38
2022-09-03T07:19:03.523Z,2.03
2022-09-03T07:21:53.753Z,1.88
2022-09-03T07:24:46.853Z,1.80
2022-09-03T07:27:37.273Z,1.73
2022-09-03T07:30:27.217Z,1.98
2022-09-03T07:33:18.334Z,1.80
2022-09-03T07:36:16.356Z,1.95
2022-09-03T07:39:07.848Z,2.03
2022-09-03T07:41:59.529Z,2.15
2022-09-03T07:44:49.908Z,2.08
2022-09-03T07:47:49.532Z,1.85
2022-09-03T07:50:40.227Z,2.05
2022-09-03T07:53:30.828Z,1.92
2022-09-03T07:56:21.833Z,2.10
2022-09-03T07:59:12.434Z,2.03
2022-09-03T08:02:03.110Z,2.13
2022-09-03T08:04:53.106Z,2.40
2022-09-03T08:07:43.105Z,2.10
2022-09-03T08:10:38.249Z,1.85
2022-09-03T08:13:28.669Z,2.20
2022-09-03T08:16:18.835Z,2.22
2022-09-03T08:19:09.708Z,1.77
2022-09-03T08:22:00.446Z,2.22
2022-09-03T08:24:51.154Z,2.55
2022-09-03T08:27:41.375Z,2.05
2022-09-03T08:30:31.330Z,2.10
2022-09-03T08:33:37.548Z,2.17
2022-09-03T08:36:31.074Z,2.15
2022-09-03T08:39:21.042Z,2.13
2022-09-03T08:42:34.948Z,2.15
2022-09-03T08:45:26.323Z,2.53
2022-09-03T08:48:26.208Z,2.28
2022-09-03T08:51:20.056Z,2.17
2022-09-03T08:54:12.955Z,2.22
2022-09-03T08:57:03.955Z,2.92
2022-09-03T08:59:58.267Z,2.80
2022-09-03T09:03:31.115Z,3.03
2022-09-03T09:06:31.026Z,2.88
2022-09-03T09:09:48.913Z,2.63
2022-09-03T09:12:58.616Z,3.00
2022-09-03T09:16:08.610Z,2.78
2022-09-03T09:19:34.563Z,2.63
2022-09-03T09:22:47.369Z,2.80
2022-09-03T09:25:48.669Z,2.90
2022-09-03T09:28:39.097Z,2.78
2022-09-03T09:31:30.918Z,2.80
2022-09-03T09:34:21.309Z,2.72
2022-09-03T09:37:14.566Z,2.70
2022-09-03T09:40:05.363Z,2.10
2022-09-03T09:43:06.963Z,2.30
2022-09-03T09:46:08.487Z,2.65
2022-09-03T09:48:58.939Z,2.92
2022-09-03T09:51:49.723Z,2.70
2022-09-03T09:54:41.763Z,2.78
2022-09-03T09:57:31.967Z,2.65
2022-09-03T10:00:22.416Z,2.75
2022-09-03T10:03:13.750Z,2.92
2022-09-03T10:06:26.534Z,2.67
2022-09-03T10:09:19.142Z,2.25
2022-09-03T10:12:26.391Z,2.67
2022-09-03T10:15:31.235Z,2.42
2022-09-03T10:18:45.825Z,2.20
2022-09-03T10:21:49.588Z,2.53
2022-09-03T10:24:57.899Z,2.30
2022-09-03T10:27:48.876Z,2.78
2022-09-03T10:31:08.481Z,2.22
2022-09-03T10:34:07.844Z,2.35
2022-09-03T10:37:22.836Z,2.17
2022-09-03T10:40:30.897Z,2.20
2022-09-03T10:43:43.040Z,2.40
2022-09-03T10:46:59.469Z,2.10
2022-09-03T10:50:16.705Z,2.47
2022-09-03T10:53:31.669Z,2.63
2022-09-03T10:56:33.016Z,2.40
2022-09-03T10:59:38.635Z,2.63
2022-09-03T11:02:31.732Z,2.25
2022-09-03T11:05:29.769Z,2.92
2022-09-03T11:08:26.380Z,2.80
2022-09-03T11:11:22.289Z,2.95
2022-09-03T11:14:16.679Z,2.50
2022-09-03T11:17:15.427Z,2.42
2022-09-03T11:20:18.621Z,2.20
2022-09-03T11:23:13.386Z,2.42
2022-09-03T11:26:12.781Z,2.53
2022-09-03T11:29:29.812Z,2.25
2022-09-03T11:32:31.180Z,2.10
2022-09-03T11:35:24.476Z,2.13
2022-09-03T11:38:14.885Z,1.70
2022-09-03T11:41:14.610Z,1.83
2022-09-03T11:44:17.970Z,2.00
2022-09-03T11:47:21.408Z,2.10
2022-09-03T11:50:30.530Z,2.40
2022-09-03T11:53:28.264Z,2.20
2022-09-03T11:56:19.918Z,2.42
2022-09-03T11:59:16.091Z,2.50
2022-09-03T12:02:24.450Z,2.22
2022-09-03T12:05:42.520Z,2.25
2022-09-03T12:08:48.796Z,2.25
2022-09-03T12:11:54.671Z,2.30
2022-09-03T12:15:03.331Z,1.95
2022-09-03T12:18:18.997Z,2.17
2022-09-03T12:21:10.956Z,2.40
2022-09-03T12:24:02.988Z,2.20
2022-09-03T12:26:53.337Z,2.10
2022-09-03T12:29:59.816Z,2.42
2022-09-03T12:32:51.394Z,2.30
2022-09-03T12:39:11.868Z,2.55
2022-09-03T12:42:10.267Z,2.40
2022-09-03T12:45:08.272Z,2.65
2022-09-03T12:47:59.300Z,2.65
2022-09-03T12:51:47.798Z,2.70
2022-09-03T12:54:16.552Z,2.40
2022-09-03T12:57:08.928Z,2.67
2022-09-03T13:00:09.304Z,2.38
2022-09-03T13:03:04.602Z,2.63
2022-09-03T13:05:59.500Z,3.10
2022-09-03T13:08:54.522Z,2.70
2022-09-03T13:11:44.909Z,2.00
2022-09-03T13:14:44.067Z,1.92
2022-09-03T13:17:53.952Z,2.25
2022-09-03T13:21:13.906Z,1.98
2022-09-03T13:24:35.228Z,1.80
2022-09-03T13:28:02.610Z,1.73
2022-09-03T13:31:01.016Z,2.35
2022-09-03T13:33:56.811Z,1.98
2022-09-03T13:36:58.807Z,1.88
2022-09-03T13:39:59.772Z,2.13
2022-09-03T13:42:58.640Z,2.67
2022-09-03T13:46:02.625Z,2.22
2022-09-03T13:49:17.705Z,2.47
2022-09-03T13:52:17.935Z,2.33
2022-09-03T13:55:29.243Z,2.38
2022-09-03T13:58:31.899Z,2.20
2022-09-03T14:01:45.122Z,2.45
2022-09-03T14:05:05.014Z,2.60
2022-09-03T14:07:58.320Z,2.88
2022-09-03T14:10:57.991Z,2.92
2022-09-03T14:14:16.766Z,2.53
2022-09-03T14:17:12.563Z,3.58
2022-09-03T14:20:26.812Z,2.47
2022-09-03T14:24:12.047Z,2.53
2022-09-03T14:27:03.414Z,2.88
2022-09-03T14:30:01.060Z,2.40
2022-09-03T14:33:17.653Z,2.05
2022-09-03T14:36:25.951Z,2.40
2022-09-03T14:39:41.349Z,1.90
2022-09-03T14:42:56.714Z,1.80
2022-09-03T14:46:09.064Z,2.17
2022-09-03T14:49:14.200Z,2.30
2022-09-03T14:52:37.472Z,1.98
2022-09-03T14:55:54.349Z,1.92
2022-09-03T14:59:22.684Z,2.00
2022-09-03T15:02:25.408Z,2.28
2022-09-03T15:05:18.919Z,1.83
2022-09-03T15:08:39.953Z,1.90
2022-09-03T15:11:35.251Z,2.05
2022-09-03T15:14:56.167Z,2.00
2022-09-03T15:18:08.095Z,2.15
2022-09-03T15:21:14.665Z,7.25
2022-09-03T15:24:18.625Z,3.88
2022-09-03T15:27:19.263Z,3.03
2022-09-03T15:30:21.353Z,2.28
2022-09-03T15:33:22.895Z,2.33
2022-09-03T15:36:26.678Z,2.10
2022-09-03T15:39:23.283Z,2.40
2022-09-03T15:42:27.693Z,2.10
2022-09-03T15:45:36.839Z,2.17
2022-09-03T15:49:00.636Z,2.20
2022-09-03T15:52:28.374Z,2.50
2022-09-03T15:55:30.723Z,2.60
2022-09-03T15:58:30.863Z,2.63
2022-09-03T16:01:33.642Z,2.70
2022-09-03T16:04:50.606Z,2.60
2022-09-03T16:07:43.589Z,2.38
2022-09-03T16:10:42.624Z,2.15
2022-09-03T16:13:45.394Z,2.13
2022-09-03T16:16:44.359Z,2.00
2022-09-03T16:19:44.730Z,2.20
2022-09-03T16:22:56.053Z,2.28
2022-09-03T16:25:56.941Z,2.75
2022-09-03T16:28:59.866Z,2.15
2022-09-03T16:32:27.307Z,2.67
2022-09-03T16:35:54.052Z,2.70
2022-09-03T16:38:56.602Z,2.47
2022-09-03T16:41:59.641Z,2.03
2022-09-03T16:45:08.454Z,2.20
2022-09-03T16:48:40.157Z,2.10
2022-09-03T16:52:02.909Z,2.47
2022-09-03T16:55:30.489Z,1.75
2022-09-03T16:58:38.895Z,2.28
2022-09-03T17:02:23.702Z,2.20
2022-09-03T17:05:48.608Z,2.72
2022-09-03T17:08:45.468Z,2.50
2022-09-03T17:11:53.287Z,2.88
2022-09-03T17:14:54.782Z,2.60
2022-09-03T17:18:23.074Z,2.67
2022-09-03T17:22:04.783Z,2.88
2022-09-03T17:25:04.634Z,2.75
2022-09-03T17:28:27.361Z,2.63
2022-09-03T17:31:55.352Z,2.42
2022-09-03T17:34:58.735Z,3.35
2022-09-03T17:38:10.610Z,2.70
2022-09-03T17:41:27.030Z,3.00
2022-09-03T17:44:38.307Z,3.00
2022-09-03T17:47:59.159Z,2.42
2022-09-03T17:51:02.956Z,2.53
2022-09-03T17:54:08.611Z,2.60
2022-09-03T17:57:17.089Z,2.45
2022-09-03T18:00:12.313Z,2.95
2022-09-03T18:03:19.471Z,2.35
2022-09-03T18:06:39.816Z,2.15
2022-09-03T18:09:38.155Z,2.88
2022-09-03T18:12:56.211Z,2.70
2022-09-03T18:16:14.160Z,2.63
2022-09-03T18:19:30.274Z,3.33
2022-09-03T18:22:44.717Z,2.53
2022-09-03T18:25:55.660Z,3.08
2022-09-03T18:29:10.683Z,2.95
2022-09-03T18:32:20.192Z,2.70
2022-09-03T18:35:32.058Z,2.70
2022-09-03T18:38:47.048Z,2.75
2022-09-03T18:42:03.493Z,3.35
2022-09-03T18:45:47.291Z,2.60
2022-09-03T18:49:11.222Z,2.72
2022-09-03T18:52:40.468Z,2.78
2022-09-03T18:56:05.466Z,2.92
2022-09-03T18:59:31.421Z,2.75
2022-09-03T19:03:04.555Z,3.58
2022-09-03T19:06:25.734Z,3.35
2022-09-03T19:09:51.626Z,3.55
2022-09-03T19:13:24.510Z,3.10
2022-09-03T19:16:56.564Z,3.17
2022-09-03T19:20:11.613Z,3.65
2022-09-03T19:23:22.342Z,3.38
2022-09-03T19:26:44.115Z,3.70
2022-09-03T19:30:20.669Z,3.63
2022-09-03T19:33:42.198Z,3.97
2022-09-03T19:37:03.548Z,4.03
2022-09-03T19:40:31.736Z,3.92
2022-09-03T19:44:04.126Z,4.20
2022-09-03T19:47:17.563Z,3.80
2022-09-03T19:50:40.292Z,3.92
2022-09-03T19:53:52.895Z,4.00
2022-09-03T19:57:02.723Z,4.05
2022-09-03T20:00:11.684Z,4.28
2022-09-03T20:03:24.689Z,4.40
2022-09-03T20:06:34.909Z,3.90
2022-09-03T20:09:49.356Z,4.10
2022-09-03T20:12:45.418Z,4.07
2022-09-03T20:15:44.763Z,4.00
2022-09-03T20:18:57.072Z,3.88
2022-09-03T20:21:50.030Z,3.72
2022-09-03T20:25:13.107Z,3.65
2022-09-03T20:28:31.850Z,3.15
2022-09-03T20:31:27.517Z,3.55
2022-09-03T20:34:42.595Z,3.05
2022-09-03T20:37:50.656Z,3.00
2022-09-03T20:40:47.112Z,2.83
2022-09-03T20:43:49.896Z,2.85
2022-09-03T20:46:52.299Z,2.70
2022-09-03T20:49:57.849Z,2.67
2022-09-03T20:53:02.948Z,2.80
2022-09-03T20:56:03.635Z,2.75
2022-09-03T20:59:09.177Z,3.10
2022-09-03T21:02:25.930Z,2.90
2022-09-03T21:05:42.942Z,2.90
2022-09-03T21:09:13.889Z,2.88
2022-09-03T21:12:42.596Z,3.17
2022-09-03T21:15:39.271Z,2.78
2022-09-03T21:18:51.413Z,3.15
2022-09-03T21:22:06.451Z,3.42
2022-09-03T21:27:54.939Z,3.03
2022-09-03T21:30:51.325Z,3.08
2022-09-03T21:33:47.594Z,2.33
2022-09-03T21:36:42.679Z,2.75
2022-09-03T21:39:42.384Z,2.60
2022-09-03T21:42:42.328Z,2.90
2022-09-03T21:45:43.997Z,2.60
2022-09-03T21:48:39.829Z,2.45
2022-09-03T21:52:00.423Z,2.80
2022-09-03T21:54:51.983Z,3.00
2022-09-03T21:58:05.364Z,2.75
2022-09-03T22:01:04.333Z,3.00
2022-09-03T22:03:55.803Z,2.88
2022-09-03T22:06:53.485Z,2.83
2022-09-03T22:10:05.608Z,3.20
2022-09-03T22:13:09.418Z,3.00
2022-09-03T22:16:24.579Z,3.07
2022-09-03T22:19:15.196Z,3.10
2022-09-03T22:22:13.312Z,3.67
2022-09-03T22:25:24.787Z,3.17
2022-09-03T22:28:28.578Z,3.30
2022-09-03T22:34:51.954Z,2.75
2022-09-03T22:38:06.988Z,3.22
2022-09-03T22:41:11.830Z,3.83
2022-09-03T22:47:11.494Z,2.90
2022-09-03T22:50:14.905Z,2.53
2022-09-03T22:56:13.305Z,2.88
2022-09-03T22:59:34.292Z,3.17
2022-09-03T23:02:28.135Z,3.20
2022-09-03T23:05:33.485Z,3.05
2022-09-03T23:08:33.419Z,2.90
2022-09-03T23:11:34.508Z,3.15
2022-09-03T23:14:35.400Z,3.13
2022-09-03T23:17:41.120Z,3.42
2022-09-03T23:20:34.893Z,3.58
2022-09-03T23:23:31.013Z,3.28
2022-09-03T23:26:32.217Z,3.42
2022-09-03T23:29:40.933Z,4.40
2022-09-03T23:32:33.479Z,4.35
2022-09-03T23:35:30.415Z,3.80
2022-09-03T23:38:38.891Z,3.97
2022-09-03T23:41:56.428Z,3.53
2022-09-03T23:45:15.754Z,3.70
2022-09-03T23:48:08.947Z,3.75
2022-09-03T23:51:38.747Z,3.50
2022-09-03T23:54:39.667Z,3.90
2022-09-03T23:57:38.580Z,4.05
